sensor_id;sensor_type;location;lat;lon;timestamp;temperature;humidity
7411;DHT22;3747;48.628;9.058;2023-10-13T00:01:02;16.90;91.70
7411;DHT22;3747;48.628;9.058;2023-10-13T00:03:32;16.90;91.60
7411;DHT22;3747;48.628;9.058;2023-10-13T00:05:58;16.80;91.80
7411;DHT22;3747;48.628;9.058;2023-10-13T00:08:28;16.80;91.80
7411;DHT22;3747;48.628;9.058;2023-10-13T00:10:55;16.80;91.90
7411;DHT22;3747;48.628;9.058;2023-10-13T00:13:27;16.60;92.40
7411;DHT22;3747;48.628;9.058;2023-10-13T00:15:54;16.60;92.00
7411;DHT22;3747;48.628;9.058;2023-10-13T00:18:24;16.50;91.90
7411;DHT22;3747;48.628;9.058;2023-10-13T00:20:53;16.50;92.10
7411;DHT22;3747;48.628;9.058;2023-10-13T00:23:22;16.40;92.40
7411;DHT22;3747;48.628;9.058;2023-10-13T00:25:52;16.30;92.30
7411;DHT22;3747;48.628;9.058;2023-10-13T00:28:24;16.30;92.30
7411;DHT22;3747;48.628;9.058;2023-10-13T00:30:54;16.30;92.20
7411;DHT22;3747;48.628;9.058;2023-10-13T00:33:26;16.20;92.40
7411;DHT22;3747;48.628;9.058;2023-10-13T00:35:53;16.20;92.50
7411;DHT22;3747;48.628;9.058;2023-10-13T00:38:23;16.10;92.60
7411;DHT22;3747;48.628;9.058;2023-10-13T00:40:50;16.00;92.70
7411;DHT22;3747;48.628;9.058;2023-10-13T00:43:20;15.90;92.90
7411;DHT22;3747;48.628;9.058;2023-10-13T00:46:02;15.90;93.00
7411;DHT22;3747;48.628;9.058;2023-10-13T00:48:36;15.80;92.90
7411;DHT22;3747;48.628;9.058;2023-10-13T00:51:09;16.00;92.80
7411;DHT22;3747;48.628;9.058;2023-10-13T00:53:44;15.90;92.80
7411;DHT22;3747;48.628;9.058;2023-10-13T00:56:13;15.90;92.90
7411;DHT22;3747;48.628;9.058;2023-10-13T00:58:44;15.90;93.00
7411;DHT22;3747;48.628;9.058;2023-10-13T01:01:13;15.80;93.10
7411;DHT22;3747;48.628;9.058;2023-10-13T01:03:48;15.70;93.10
7411;DHT22;3747;48.628;9.058;2023-10-13T01:06:17;15.60;93.30
7411;DHT22;3747;48.628;9.058;2023-10-13T01:08:45;15.60;93.50
7411;DHT22;3747;48.628;9.058;2023-10-13T01:11:17;15.40;93.50
7411;DHT22;3747;48.628;9.058;2023-10-13T01:13:43;15.40;93.50
7411;DHT22;3747;48.628;9.058;2023-10-13T01:16:09;15.30;93.60
7411;DHT22;3747;48.628;9.058;2023-10-13T01:18:37;15.30;93.70
7411;DHT22;3747;48.628;9.058;2023-10-13T01:21:14;15.30;93.70
7411;DHT22;3747;48.628;9.058;2023-10-13T01:23:43;15.20;94.10
7411;DHT22;3747;48.628;9.058;2023-10-13T01:26:12;15.20;93.90
7411;DHT22;3747;48.628;9.058;2023-10-13T01:28:39;15.10;94.00
7411;DHT22;3747;48.628;9.058;2023-10-13T01:31:12;15.20;93.80
7411;DHT22;3747;48.628;9.058;2023-10-13T01:33:38;15.20;93.80
7411;DHT22;3747;48.628;9.058;2023-10-13T01:36:05;15.30;93.70
7411;DHT22;3747;48.628;9.058;2023-10-13T01:38:35;15.40;93.80
7411;DHT22;3747;48.628;9.058;2023-10-13T01:41:06;15.50;93.50
7411;DHT22;3747;48.628;9.058;2023-10-13T01:43:34;15.50;93.50
7411;DHT22;3747;48.628;9.058;2023-10-13T01:46:00;15.60;93.40
7411;DHT22;3747;48.628;9.058;2023-10-13T01:48:29;15.60;93.50
7411;DHT22;3747;48.628;9.058;2023-10-13T01:50:57;15.60;93.30
7411;DHT22;3747;48.628;9.058;2023-10-13T01:53:26;15.70;93.30
7411;DHT22;3747;48.628;9.058;2023-10-13T01:55:54;15.70;93.40
7411;DHT22;3747;48.628;9.058;2023-10-13T01:58:24;15.70;93.60
7411;DHT22;3747;48.628;9.058;2023-10-13T02:00:52;15.60;93.50
7411;DHT22;3747;48.628;9.058;2023-10-13T02:03:18;15.60;93.60
7411;DHT22;3747;48.628;9.058;2023-10-13T02:05:47;15.60;93.60
7411;DHT22;3747;48.628;9.058;2023-10-13T02:08:15;15.60;93.60
7411;DHT22;3747;48.628;9.058;2023-10-13T02:10:44;15.70;93.40
7411;DHT22;3747;48.628;9.058;2023-10-13T02:13:14;15.70;93.50
7411;DHT22;3747;48.628;9.058;2023-10-13T02:15:44;15.80;93.30
7411;DHT22;3747;48.628;9.058;2023-10-13T02:18:14;15.80;93.80
7411;DHT22;3747;48.628;9.058;2023-10-13T02:20:46;15.90;93.40
7411;DHT22;3747;48.628;9.058;2023-10-13T02:23:20;16.00;93.30
7411;DHT22;3747;48.628;9.058;2023-10-13T02:25:45;16.10;93.30
7411;DHT22;3747;48.628;9.058;2023-10-13T02:28:12;16.10;93.30
7411;DHT22;3747;48.628;9.058;2023-10-13T02:30:48;16.00;93.20
7411;DHT22;3747;48.628;9.058;2023-10-13T02:33:16;15.90;93.20
7411;DHT22;3747;48.628;9.058;2023-10-13T02:35:47;15.90;93.20
7411;DHT22;3747;48.628;9.058;2023-10-13T02:38:19;15.90;93.30
7411;DHT22;3747;48.628;9.058;2023-10-13T02:40:53;15.80;93.30
7411;DHT22;3747;48.628;9.058;2023-10-13T02:43:20;15.80;93.30
7411;DHT22;3747;48.628;9.058;2023-10-13T02:45:53;15.80;93.90
7411;DHT22;3747;48.628;9.058;2023-10-13T02:48:24;15.80;93.40
7411;DHT22;3747;48.628;9.058;2023-10-13T02:50:57;15.80;93.60
7411;DHT22;3747;48.628;9.058;2023-10-13T02:53:27;15.70;93.70
7411;DHT22;3747;48.628;9.058;2023-10-13T02:55:55;15.70;93.60
7411;DHT22;3747;48.628;9.058;2023-10-13T02:58:24;15.70;93.80
7411;DHT22;3747;48.628;9.058;2023-10-13T03:01:06;15.50;93.90
7411;DHT22;3747;48.628;9.058;2023-10-13T03:03:43;15.40;94.00
7411;DHT22;3747;48.628;9.058;2023-10-13T03:06:09;15.30;94.10
7411;DHT22;3747;48.628;9.058;2023-10-13T03:08:37;15.30;93.90
7411;DHT22;3747;48.628;9.058;2023-10-13T03:11:03;15.30;94.00
7411;DHT22;3747;48.628;9.058;2023-10-13T03:13:30;15.30;93.80
7411;DHT22;3747;48.628;9.058;2023-10-13T03:15:58;15.30;93.90
7411;DHT22;3747;48.628;9.058;2023-10-13T03:18:25;15.30;93.70
7411;DHT22;3747;48.628;9.058;2023-10-13T03:20:52;15.40;93.60
7411;DHT22;3747;48.628;9.058;2023-10-13T03:23:22;15.30;93.50
7411;DHT22;3747;48.628;9.058;2023-10-13T03:25:50;15.30;93.70
7411;DHT22;3747;48.628;9.058;2023-10-13T03:28:20;15.30;93.70
7411;DHT22;3747;48.628;9.058;2023-10-13T03:30:50;15.20;93.90
7411;DHT22;3747;48.628;9.058;2023-10-13T03:33:18;15.40;93.60
7411;DHT22;3747;48.628;9.058;2023-10-13T03:35:53;15.50;93.60
7411;DHT22;3747;48.628;9.058;2023-10-13T03:38:20;15.60;93.20
7411;DHT22;3747;48.628;9.058;2023-10-13T03:40:52;15.70;93.10
7411;DHT22;3747;48.628;9.058;2023-10-13T03:43:32;15.70;93.30
7411;DHT22;3747;48.628;9.058;2023-10-13T03:46:10;15.80;93.20
7411;DHT22;3747;48.628;9.058;2023-10-13T03:48:37;15.90;93.20
7411;DHT22;3747;48.628;9.058;2023-10-13T03:51:18;16.00;93.00
7411;DHT22;3747;48.628;9.058;2023-10-13T03:53:46;16.00;93.20
7411;DHT22;3747;48.628;9.058;2023-10-13T03:56:19;16.00;93.30
7411;DHT22;3747;48.628;9.058;2023-10-13T03:58:53;16.00;93.20
7411;DHT22;3747;48.628;9.058;2023-10-13T04:01:23;15.90;93.10
7411;DHT22;3747;48.628;9.058;2023-10-13T04:03:57;15.90;93.20
7411;DHT22;3747;48.628;9.058;2023-10-13T04:06:30;15.80;93.20
7411;DHT22;3747;48.628;9.058;2023-10-13T04:09:13;15.80;93.10
7411;DHT22;3747;48.628;9.058;2023-10-13T04:11:57;15.70;93.10
7411;DHT22;3747;48.628;9.058;2023-10-13T04:14:43;15.80;93.20
7411;DHT22;3747;48.628;9.058;2023-10-13T04:17:27;15.70;93.10
7411;DHT22;3747;48.628;9.058;2023-10-13T04:19:55;15.70;93.40
7411;DHT22;3747;48.628;9.058;2023-10-13T04:22:39;15.60;93.30
7411;DHT22;3747;48.628;9.058;2023-10-13T04:25:21;15.60;93.50
7411;DHT22;3747;48.628;9.058;2023-10-13T04:28:18;15.50;93.40
7411;DHT22;3747;48.628;9.058;2023-10-13T04:31:00;15.40;93.80
7411;DHT22;3747;48.628;9.058;2023-10-13T04:33:37;15.20;93.90
7411;DHT22;3747;48.628;9.058;2023-10-13T04:36:17;15.10;93.90
7411;DHT22;3747;48.628;9.058;2023-10-13T04:39:03;14.90;94.40
7411;DHT22;3747;48.628;9.058;2023-10-13T04:41:35;14.80;94.40
7411;DHT22;3747;48.628;9.058;2023-10-13T04:44:05;14.60;94.60
7411;DHT22;3747;48.628;9.058;2023-10-13T04:46:46;14.60;94.50
7411;DHT22;3747;48.628;9.058;2023-10-13T04:49:34;14.40;94.80
7411;DHT22;3747;48.628;9.058;2023-10-13T04:52:15;14.40;94.60
7411;DHT22;3747;48.628;9.058;2023-10-13T04:55:06;14.20;94.60
7411;DHT22;3747;48.628;9.058;2023-10-13T04:57:59;14.00;95.00
7411;DHT22;3747;48.628;9.058;2023-10-13T05:00:40;13.70;95.40
7411;DHT22;3747;48.628;9.058;2023-10-13T05:03:21;13.60;95.60
7411;DHT22;3747;48.628;9.058;2023-10-13T05:06:18;13.50;96.00
7411;DHT22;3747;48.628;9.058;2023-10-13T05:09:03;13.30;96.10
7411;DHT22;3747;48.628;9.058;2023-10-13T05:12:03;13.10;96.30
7411;DHT22;3747;48.628;9.058;2023-10-13T05:14:47;12.90;96.50
7411;DHT22;3747;48.628;9.058;2023-10-13T05:17:31;12.80;97.10
7411;DHT22;3747;48.628;9.058;2023-10-13T05:20:15;12.60;97.00
7411;DHT22;3747;48.628;9.058;2023-10-13T05:23:00;12.50;97.40
7411;DHT22;3747;48.628;9.058;2023-10-13T05:25:55;12.40;97.70
7411;DHT22;3747;48.628;9.058;2023-10-13T05:28:41;12.40;97.50
7411;DHT22;3747;48.628;9.058;2023-10-13T05:31:25;12.30;97.70
7411;DHT22;3747;48.628;9.058;2023-10-13T05:34:09;12.30;97.70
7411;DHT22;3747;48.628;9.058;2023-10-13T05:36:53;12.20;97.60
7411;DHT22;3747;48.628;9.058;2023-10-13T05:39:40;12.20;97.70
7411;DHT22;3747;48.628;9.058;2023-10-13T05:42:24;12.20;98.20
7411;DHT22;3747;48.628;9.058;2023-10-13T05:45:10;12.20;98.10
7411;DHT22;3747;48.628;9.058;2023-10-13T05:48:19;12.10;98.20
7411;DHT22;3747;48.628;9.058;2023-10-13T05:51:00;12.20;98.40
7411;DHT22;3747;48.628;9.058;2023-10-13T05:53:40;12.50;98.10
7411;DHT22;3747;48.628;9.058;2023-10-13T05:56:24;12.60;98.30
7411;DHT22;3747;48.628;9.058;2023-10-13T05:59:14;12.60;98.40
7411;DHT22;3747;48.628;9.058;2023-10-13T06:02:08;12.70;98.20
7411;DHT22;3747;48.628;9.058;2023-10-13T06:05:09;12.70;98.10
7411;DHT22;3747;48.628;9.058;2023-10-13T06:07:53;12.90;98.00
7411;DHT22;3747;48.628;9.058;2023-10-13T06:10:38;13.10;98.00
7411;DHT22;3747;48.628;9.058;2023-10-13T06:13:22;13.20;97.80
7411;DHT22;3747;48.628;9.058;2023-10-13T06:16:06;13.40;97.40
7411;DHT22;3747;48.628;9.058;2023-10-13T06:18:52;13.90;96.60
7411;DHT22;3747;48.628;9.058;2023-10-13T06:21:36;14.20;96.50
7411;DHT22;3747;48.628;9.058;2023-10-13T06:24:21;14.60;96.30
7411;DHT22;3747;48.628;9.058;2023-10-13T06:27:05;15.00;95.50
7411;DHT22;3747;48.628;9.058;2023-10-13T06:29:49;15.30;95.20
7411;DHT22;3747;48.628;9.058;2023-10-13T06:32:15;15.60;94.80
7411;DHT22;3747;48.628;9.058;2023-10-13T06:34:43;15.70;94.80
7411;DHT22;3747;48.628;9.058;2023-10-13T06:37:11;15.80;94.50
7411;DHT22;3747;48.628;9.058;2023-10-13T06:39:48;15.80;94.60
7411;DHT22;3747;48.628;9.058;2023-10-13T06:42:15;15.80;94.40
7411;DHT22;3747;48.628;9.058;2023-10-13T06:44:44;15.80;94.10
7411;DHT22;3747;48.628;9.058;2023-10-13T06:47:12;15.90;93.80
7411;DHT22;3747;48.628;9.058;2023-10-13T06:49:39;16.20;93.30
7411;DHT22;3747;48.628;9.058;2023-10-13T06:52:10;16.30;93.20
7411;DHT22;3747;48.628;9.058;2023-10-13T06:54:37;16.50;92.90
7411;DHT22;3747;48.628;9.058;2023-10-13T06:57:04;16.60;92.90
7411;DHT22;3747;48.628;9.058;2023-10-13T06:59:32;16.80;92.70
7411;DHT22;3747;48.628;9.058;2023-10-13T07:02:00;16.90;92.50
7411;DHT22;3747;48.628;9.058;2023-10-13T07:04:31;16.90;92.20
7411;DHT22;3747;48.628;9.058;2023-10-13T07:06:57;17.20;92.10
7411;DHT22;3747;48.628;9.058;2023-10-13T07:09:31;17.70;91.50
7411;DHT22;3747;48.628;9.058;2023-10-13T07:12:17;18.20;91.10
7411;DHT22;3747;48.628;9.058;2023-10-13T07:15:08;18.70;90.50
7411;DHT22;3747;48.628;9.058;2023-10-13T07:17:44;19.10;90.60
7411;DHT22;3747;48.628;9.058;2023-10-13T07:20:12;19.40;89.70
7411;DHT22;3747;48.628;9.058;2023-10-13T07:22:48;19.50;89.60
7411;DHT22;3747;48.628;9.058;2023-10-13T07:25:24;19.80;88.50
7411;DHT22;3747;48.628;9.058;2023-10-13T07:27:56;19.90;88.50
7411;DHT22;3747;48.628;9.058;2023-10-13T07:30:23;20.10;89.10
7411;DHT22;3747;48.628;9.058;2023-10-13T07:32:52;20.50;87.60
7411;DHT22;3747;48.628;9.058;2023-10-13T07:35:23;20.70;86.80
7411;DHT22;3747;48.628;9.058;2023-10-13T07:37:52;20.80;86.10
7411;DHT22;3747;48.628;9.058;2023-10-13T07:40:21;20.90;86.60
7411;DHT22;3747;48.628;9.058;2023-10-13T07:43:17;21.00;85.80
7411;DHT22;3747;48.628;9.058;2023-10-13T07:45:48;21.30;84.90
7411;DHT22;3747;48.628;9.058;2023-10-13T07:48:45;21.00;85.00
7411;DHT22;3747;48.628;9.058;2023-10-13T07:51:16;20.70;85.10
7411;DHT22;3747;48.628;9.058;2023-10-13T07:53:45;20.60;86.80
7411;DHT22;3747;48.628;9.058;2023-10-13T07:56:14;20.70;86.20
7411;DHT22;3747;48.628;9.058;2023-10-13T07:58:46;20.60;85.30
7411;DHT22;3747;48.628;9.058;2023-10-13T08:01:18;20.80;85.80
7411;DHT22;3747;48.628;9.058;2023-10-13T08:03:45;21.10;85.50
7411;DHT22;3747;48.628;9.058;2023-10-13T08:06:13;21.20;84.80
7411;DHT22;3747;48.628;9.058;2023-10-13T08:08:47;21.10;85.10
7411;DHT22;3747;48.628;9.058;2023-10-13T08:11:18;21.50;83.70
7411;DHT22;3747;48.628;9.058;2023-10-13T08:13:55;21.70;84.30
7411;DHT22;3747;48.628;9.058;2023-10-13T08:16:25;22.00;83.10
7411;DHT22;3747;48.628;9.058;2023-10-13T08:18:56;22.20;82.60
7411;DHT22;3747;48.628;9.058;2023-10-13T08:21:44;22.30;82.90
7411;DHT22;3747;48.628;9.058;2023-10-13T08:24:17;22.50;82.10
7411;DHT22;3747;48.628;9.058;2023-10-13T08:26:51;23.10;80.30
7411;DHT22;3747;48.628;9.058;2023-10-13T08:29:24;22.90;80.70
7411;DHT22;3747;48.628;9.058;2023-10-13T08:32:08;22.90;80.60
7411;DHT22;3747;48.628;9.058;2023-10-13T08:34:48;23.00;80.20
7411;DHT22;3747;48.628;9.058;2023-10-13T08:37:36;23.20;79.70
7411;DHT22;3747;48.628;9.058;2023-10-13T08:40:22;23.40;79.00
7411;DHT22;3747;48.628;9.058;2023-10-13T08:43:13;23.50;78.50
7411;DHT22;3747;48.628;9.058;2023-10-13T08:45:42;23.60;77.30
7411;DHT22;3747;48.628;9.058;2023-10-13T08:48:23;23.80;78.40
7411;DHT22;3747;48.628;9.058;2023-10-13T08:50:57;23.80;79.10
7411;DHT22;3747;48.628;9.058;2023-10-13T08:53:30;24.20;79.00
7411;DHT22;3747;48.628;9.058;2023-10-13T08:55:59;23.90;78.50
7411;DHT22;3747;48.628;9.058;2023-10-13T08:58:40;24.10;77.80
7411;DHT22;3747;48.628;9.058;2023-10-13T09:01:40;24.20;78.30
7411;DHT22;3747;48.628;9.058;2023-10-13T09:04:14;24.20;77.80
7411;DHT22;3747;48.628;9.058;2023-10-13T09:06:49;24.60;77.00
7411;DHT22;3747;48.628;9.058;2023-10-13T09:09:29;24.60;76.60
7411;DHT22;3747;48.628;9.058;2023-10-13T09:12:01;24.60;77.40
7411;DHT22;3747;48.628;9.058;2023-10-13T09:14:36;24.40;76.40
7411;DHT22;3747;48.628;9.058;2023-10-13T09:17:06;23.80;77.40
7411;DHT22;3747;48.628;9.058;2023-10-13T09:19:52;23.20;77.50
7411;DHT22;3747;48.628;9.058;2023-10-13T09:22:23;22.80;78.60
7411;DHT22;3747;48.628;9.058;2023-10-13T09:24:56;22.50;79.00
7411;DHT22;3747;48.628;9.058;2023-10-13T09:27:40;22.40;79.80
7411;DHT22;3747;48.628;9.058;2023-10-13T09:30:16;22.30;80.10
7411;DHT22;3747;48.628;9.058;2023-10-13T09:32:59;22.30;80.10
7411;DHT22;3747;48.628;9.058;2023-10-13T09:35:37;22.30;80.10
7411;DHT22;3747;48.628;9.058;2023-10-13T09:38:05;22.40;81.80
7411;DHT22;3747;48.628;9.058;2023-10-13T09:40:32;22.40;80.20
7411;DHT22;3747;48.628;9.058;2023-10-13T09:43:04;22.60;81.10
7411;DHT22;3747;48.628;9.058;2023-10-13T09:45:33;22.70;79.40
7411;DHT22;3747;48.628;9.058;2023-10-13T09:48:04;22.70;80.40
7411;DHT22;3747;48.628;9.058;2023-10-13T09:50:36;22.80;81.00
7411;DHT22;3747;48.628;9.058;2023-10-13T09:53:06;22.90;80.30
7411;DHT22;3747;48.628;9.058;2023-10-13T09:55:38;23.10;79.40
7411;DHT22;3747;48.628;9.058;2023-10-13T09:58:19;23.10;80.20
7411;DHT22;3747;48.628;9.058;2023-10-13T10:00:57;23.20;79.90
7411;DHT22;3747;48.628;9.058;2023-10-13T10:03:44;23.30;79.90
7411;DHT22;3747;48.628;9.058;2023-10-13T10:06:21;23.30;79.50
7411;DHT22;3747;48.628;9.058;2023-10-13T10:09:04;23.50;79.80
7411;DHT22;3747;48.628;9.058;2023-10-13T10:11:57;23.50;77.60
7411;DHT22;3747;48.628;9.058;2023-10-13T10:14:42;23.60;79.10
7411;DHT22;3747;48.628;9.058;2023-10-13T10:17:27;23.90;79.30
7411;DHT22;3747;48.628;9.058;2023-10-13T10:20:00;24.20;78.50
7411;DHT22;3747;48.628;9.058;2023-10-13T10:22:33;24.40;78.40
7411;DHT22;3747;48.628;9.058;2023-10-13T10:25:02;24.50;78.10
7411;DHT22;3747;48.628;9.058;2023-10-13T10:27:57;24.60;76.60
7411;DHT22;3747;48.628;9.058;2023-10-13T10:30:24;24.70;75.20
7411;DHT22;3747;48.628;9.058;2023-10-13T10:32:54;24.70;76.10
7411;DHT22;3747;48.628;9.058;2023-10-13T10:35:26;24.90;76.20
7411;DHT22;3747;48.628;9.058;2023-10-13T10:37:56;25.00;75.60
7411;DHT22;3747;48.628;9.058;2023-10-13T10:40:48;25.10;74.60
7411;DHT22;3747;48.628;9.058;2023-10-13T10:43:17;25.20;72.10
7411;DHT22;3747;48.628;9.058;2023-10-13T10:45:46;25.10;73.10
7411;DHT22;3747;48.628;9.058;2023-10-13T10:48:15;24.80;72.00
7411;DHT22;3747;48.628;9.058;2023-10-13T10:50:53;24.70;73.00
7411;DHT22;3747;48.628;9.058;2023-10-13T10:53:20;24.60;73.10
7411;DHT22;3747;48.628;9.058;2023-10-13T10:56:05;24.60;74.20
7411;DHT22;3747;48.628;9.058;2023-10-13T10:58:34;24.60;74.20
7411;DHT22;3747;48.628;9.058;2023-10-13T11:01:09;24.60;73.90
7411;DHT22;3747;48.628;9.058;2023-10-13T11:03:37;24.60;75.40
7411;DHT22;3747;48.628;9.058;2023-10-13T11:06:13;24.60;74.20
7411;DHT22;3747;48.628;9.058;2023-10-13T11:08:45;24.70;74.30
7411;DHT22;3747;48.628;9.058;2023-10-13T11:11:28;24.70;73.90
7411;DHT22;3747;48.628;9.058;2023-10-13T11:13:56;24.60;74.70
7411;DHT22;3747;48.628;9.058;2023-10-13T11:16:45;24.60;73.30
7411;DHT22;3747;48.628;9.058;2023-10-13T11:19:16;24.60;72.60
7411;DHT22;3747;48.628;9.058;2023-10-13T11:21:47;24.60;73.10
7411;DHT22;3747;48.628;9.058;2023-10-13T11:24:14;24.70;74.30
7411;DHT22;3747;48.628;9.058;2023-10-13T11:26:43;24.90;74.30
7411;DHT22;3747;48.628;9.058;2023-10-13T11:29:15;25.00;75.20
7411;DHT22;3747;48.628;9.058;2023-10-13T11:32:03;25.20;72.70
7411;DHT22;3747;48.628;9.058;2023-10-13T11:34:29;25.50;73.70
7411;DHT22;3747;48.628;9.058;2023-10-13T11:37:06;25.70;71.90
7411;DHT22;3747;48.628;9.058;2023-10-13T11:39:47;25.70;72.60
7411;DHT22;3747;48.628;9.058;2023-10-13T11:42:13;25.90;70.80
7411;DHT22;3747;48.628;9.058;2023-10-13T11:44:42;26.00;71.90
7411;DHT22;3747;48.628;9.058;2023-10-13T11:47:31;26.40;71.30
7411;DHT22;3747;48.628;9.058;2023-10-13T11:50:13;26.50;71.00
7411;DHT22;3747;48.628;9.058;2023-10-13T11:52:53;26.80;69.20
7411;DHT22;3747;48.628;9.058;2023-10-13T11:55:20;27.40;69.00
7411;DHT22;3747;48.628;9.058;2023-10-13T11:57:48;27.80;65.80
7411;DHT22;3747;48.628;9.058;2023-10-13T12:00:16;27.70;66.60
7411;DHT22;3747;48.628;9.058;2023-10-13T12:02:51;27.70;66.10
7411;DHT22;3747;48.628;9.058;2023-10-13T12:05:36;27.90;66.50
7411;DHT22;3747;48.628;9.058;2023-10-13T12:08:32;28.50;67.70
7411;DHT22;3747;48.628;9.058;2023-10-13T12:11:04;29.30;65.30
7411;DHT22;3747;48.628;9.058;2023-10-13T12:13:51;29.50;64.90
7411;DHT22;3747;48.628;9.058;2023-10-13T12:16:17;29.50;64.50
7411;DHT22;3747;48.628;9.058;2023-10-13T12:18:44;29.30;63.00
7411;DHT22;3747;48.628;9.058;2023-10-13T12:21:18;29.30;63.30
7411;DHT22;3747;48.628;9.058;2023-10-13T12:24:02;29.10;63.80
7411;DHT22;3747;48.628;9.058;2023-10-13T12:26:29;29.10;63.70
7411;DHT22;3747;48.628;9.058;2023-10-13T12:28:58;29.50;63.40
7411;DHT22;3747;48.628;9.058;2023-10-13T12:31:32;29.60;62.00
7411;DHT22;3747;48.628;9.058;2023-10-13T12:34:04;29.60;62.20
7411;DHT22;3747;48.628;9.058;2023-10-13T12:36:39;29.30;62.70
7411;DHT22;3747;48.628;9.058;2023-10-13T12:39:08;29.80;61.30
7411;DHT22;3747;48.628;9.058;2023-10-13T12:41:53;30.00;61.50
7411;DHT22;3747;48.628;9.058;2023-10-13T12:44:37;29.90;61.10
7411;DHT22;3747;48.628;9.058;2023-10-13T12:47:21;29.60;61.30
7411;DHT22;3747;48.628;9.058;2023-10-13T12:50:05;29.70;61.90
7411;DHT22;3747;48.628;9.058;2023-10-13T12:52:39;29.90;60.60
7411;DHT22;3747;48.628;9.058;2023-10-13T12:55:25;29.70;59.70
7411;DHT22;3747;48.628;9.058;2023-10-13T12:57:52;29.80;60.30
7411;DHT22;3747;48.628;9.058;2023-10-13T13:00:18;29.60;58.00
7411;DHT22;3747;48.628;9.058;2023-10-13T13:02:49;29.20;56.60
7411;DHT22;3747;48.628;9.058;2023-10-13T13:05:19;29.10;56.20
7411;DHT22;3747;48.628;9.058;2023-10-13T13:07:48;29.30;57.40
7411;DHT22;3747;48.628;9.058;2023-10-13T13:10:18;29.30;57.80
7411;DHT22;3747;48.628;9.058;2023-10-13T13:12:46;29.10;57.00
7411;DHT22;3747;48.628;9.058;2023-10-13T13:15:12;29.30;57.10
7411;DHT22;3747;48.628;9.058;2023-10-13T13:17:40;29.60;56.40
7411;DHT22;3747;48.628;9.058;2023-10-13T13:20:08;29.50;55.60
7411;DHT22;3747;48.628;9.058;2023-10-13T13:22:37;29.40;54.30
7411;DHT22;3747;48.628;9.058;2023-10-13T13:25:04;29.00;54.90
7411;DHT22;3747;48.628;9.058;2023-10-13T13:27:34;29.00;53.60
7411;DHT22;3747;48.628;9.058;2023-10-13T13:30:03;29.20;54.00
7411;DHT22;3747;48.628;9.058;2023-10-13T13:32:38;29.30;54.10
7411;DHT22;3747;48.628;9.058;2023-10-13T13:35:06;29.10;52.90
7411;DHT22;3747;48.628;9.058;2023-10-13T13:37:34;29.30;53.10
7411;DHT22;3747;48.628;9.058;2023-10-13T13:40:07;29.20;54.10
7411;DHT22;3747;48.628;9.058;2023-10-13T13:42:40;29.10;53.30
7411;DHT22;3747;48.628;9.058;2023-10-13T13:45:13;29.20;53.00
7411;DHT22;3747;48.628;9.058;2023-10-13T13:47:47;29.10;53.10
7411;DHT22;3747;48.628;9.058;2023-10-13T13:50:19;29.30;54.00
7411;DHT22;3747;48.628;9.058;2023-10-13T13:52:50;29.20;53.60
7411;DHT22;3747;48.628;9.058;2023-10-13T13:55:18;29.10;54.20
7411;DHT22;3747;48.628;9.058;2023-10-13T13:57:45;29.30;53.70
7411;DHT22;3747;48.628;9.058;2023-10-13T14:00:14;29.50;53.20
7411;DHT22;3747;48.628;9.058;2023-10-13T14:02:44;29.40;54.00
7411;DHT22;3747;48.628;9.058;2023-10-13T14:05:13;29.70;53.30
7411;DHT22;3747;48.628;9.058;2023-10-13T14:07:42;29.50;51.90
7411;DHT22;3747;48.628;9.058;2023-10-13T14:10:14;29.30;53.10
7411;DHT22;3747;48.628;9.058;2023-10-13T14:12:57;29.50;53.50
7411;DHT22;3747;48.628;9.058;2023-10-13T14:15:33;29.60;53.30
7411;DHT22;3747;48.628;9.058;2023-10-13T14:18:06;29.80;51.80
7411;DHT22;3747;48.628;9.058;2023-10-13T14:20:38;30.20;51.20
7411;DHT22;3747;48.628;9.058;2023-10-13T14:23:05;30.10;50.60
7411;DHT22;3747;48.628;9.058;2023-10-13T14:25:35;30.20;49.80
7411;DHT22;3747;48.628;9.058;2023-10-13T14:28:03;30.10;49.60
7411;DHT22;3747;48.628;9.058;2023-10-13T14:30:30;30.00;49.60
7411;DHT22;3747;48.628;9.058;2023-10-13T14:32:59;29.80;49.90
7411;DHT22;3747;48.628;9.058;2023-10-13T14:35:26;29.60;50.10
7411;DHT22;3747;48.628;9.058;2023-10-13T14:37:53;29.90;48.10
7411;DHT22;3747;48.628;9.058;2023-10-13T14:40:20;29.60;47.30
7411;DHT22;3747;48.628;9.058;2023-10-13T14:42:48;29.20;48.10
7411;DHT22;3747;48.628;9.058;2023-10-13T14:45:27;29.20;47.80
7411;DHT22;3747;48.628;9.058;2023-10-13T14:47:53;29.30;47.60
7411;DHT22;3747;48.628;9.058;2023-10-13T14:50:21;29.60;48.10
7411;DHT22;3747;48.628;9.058;2023-10-13T14:52:50;29.80;47.80
7411;DHT22;3747;48.628;9.058;2023-10-13T14:55:17;29.60;47.50
7411;DHT22;3747;48.628;9.058;2023-10-13T14:57:47;29.60;46.90
7411;DHT22;3747;48.628;9.058;2023-10-13T15:00:15;29.60;46.60
7411;DHT22;3747;48.628;9.058;2023-10-13T15:02:50;29.60;46.40
7411;DHT22;3747;48.628;9.058;2023-10-13T15:05:17;29.60;46.80
7411;DHT22;3747;48.628;9.058;2023-10-13T15:07:45;29.20;45.40
7411;DHT22;3747;48.628;9.058;2023-10-13T15:10:13;28.80;46.80
7411;DHT22;3747;48.628;9.058;2023-10-13T15:12:52;28.60;46.60
7411;DHT22;3747;48.628;9.058;2023-10-13T15:15:19;28.40;46.40
7411;DHT22;3747;48.628;9.058;2023-10-13T15:17:46;28.40;47.10
7411;DHT22;3747;48.628;9.058;2023-10-13T15:20:12;28.30;46.50
7411;DHT22;3747;48.628;9.058;2023-10-13T15:22:54;28.00;46.50
7411;DHT22;3747;48.628;9.058;2023-10-13T15:25:25;27.90;47.40
7411;DHT22;3747;48.628;9.058;2023-10-13T15:27:57;27.70;47.70
7411;DHT22;3747;48.628;9.058;2023-10-13T15:30:27;27.70;47.10
7411;DHT22;3747;48.628;9.058;2023-10-13T15:33:07;27.60;48.00
7411;DHT22;3747;48.628;9.058;2023-10-13T15:35:34;27.60;49.20
7411;DHT22;3747;48.628;9.058;2023-10-13T15:38:05;27.70;48.10
7411;DHT22;3747;48.628;9.058;2023-10-13T15:40:32;27.70;48.70
7411;DHT22;3747;48.628;9.058;2023-10-13T15:42:59;27.60;48.40
7411;DHT22;3747;48.628;9.058;2023-10-13T15:45:26;27.30;48.20
7411;DHT22;3747;48.628;9.058;2023-10-13T15:48:05;27.00;49.00
7411;DHT22;3747;48.628;9.058;2023-10-13T15:50:35;27.00;48.50
7411;DHT22;3747;48.628;9.058;2023-10-13T15:53:06;26.70;48.10
7411;DHT22;3747;48.628;9.058;2023-10-13T15:55:35;26.50;48.60
7411;DHT22;3747;48.628;9.058;2023-10-13T15:58:01;26.40;49.60
7411;DHT22;3747;48.628;9.058;2023-10-13T16:00:28;26.30;50.00
7411;DHT22;3747;48.628;9.058;2023-10-13T16:02:57;26.10;49.60
7411;DHT22;3747;48.628;9.058;2023-10-13T16:05:39;26.00;50.40
7411;DHT22;3747;48.628;9.058;2023-10-13T16:08:09;25.70;51.90
7411;DHT22;3747;48.628;9.058;2023-10-13T16:10:38;25.20;52.00
7411;DHT22;3747;48.628;9.058;2023-10-13T16:13:05;24.70;53.10
7411;DHT22;3747;48.628;9.058;2023-10-13T16:15:36;24.10;54.10
7411;DHT22;3747;48.628;9.058;2023-10-13T16:18:06;23.70;54.60
7411;DHT22;3747;48.628;9.058;2023-10-13T16:20:33;23.50;55.00
7411;DHT22;3747;48.628;9.058;2023-10-13T16:23:01;23.20;55.80
7411;DHT22;3747;48.628;9.058;2023-10-13T16:25:29;23.10;56.30
7411;DHT22;3747;48.628;9.058;2023-10-13T16:27:56;22.90;56.50
7411;DHT22;3747;48.628;9.058;2023-10-13T16:30:22;22.80;57.10
7411;DHT22;3747;48.628;9.058;2023-10-13T16:32:49;22.60;57.80
7411;DHT22;3747;48.628;9.058;2023-10-13T16:35:17;22.50;57.90
7411;DHT22;3747;48.628;9.058;2023-10-13T16:37:44;22.30;58.50
7411;DHT22;3747;48.628;9.058;2023-10-13T16:40:15;22.20;59.00
7411;DHT22;3747;48.628;9.058;2023-10-13T16:42:45;22.00;59.40
7411;DHT22;3747;48.628;9.058;2023-10-13T16:45:12;22.00;59.50